Terminal Aerodrome Forecast
Issued by NWS Lake Charles, LA

Home | Current Version | Previous Version | Text Only | Print | Product List | Glossary On
Versions: 1 2 3 4 5 6 7 8 9 10 11 12 13 14 15 16 17 18 19 20 21
000
FTUS44 KLCH 230814 AAA
TAFLFT
TAF AMD
KLFT 230814Z 2308/2406 27005KT P6SM OVC007
      TEMPO 2308/2312 4SM BR
     FM231500 34007KT P6SM OVC015
     FM232000 31006KT P6SM BKN050
     FM240200 32006KT P6SM VCSH OVC025=

USA.gov is the U.S. government's official web portal to all federal, state and local government web resources and services.